Time;durP1;ratioP1;P1;durP2;ratioP2;P2;SDS_P1;SDS_P2;PMS_P1;PMS_P2;Temp;Humidity;BMP_temperature;BMP_pressure;BME280_temperature;BME280_humidity;BME280_pressure;Samples;Min_cycle;Max_cycle;Signal;HPM_P1;HPM_P2
2021/09/28 04:46:30;;;;;;;;;;;;;;;6.69;82.72;100409.25;5374371;22;19926;-81
2021/09/28 04:48:55;;;;;;;;;;;;;;;6.80;82.74;100410.84;4991589;28;19922;-82
2021/09/28 04:51:21;;;;;;;;;;;;;;;6.96;82.25;100404.41;4992761;28;19918;-81
2021/09/28 04:53:46;;;;;;;;;;;;;;;7.17;82.00;100415.44;4992785;28;20292;-82
2021/09/28 04:56:11;;;;;;;;;;;;;;;7.18;81.80;100415.41;4992260;28;19918;-94
2021/09/28 04:58:37;;;;;;;;;;;;;;;7.24;82.21;100417.94;4992183;28;19918;-82
2021/09/28 05:01:02;;;;;;;;;;;;;;;7.28;81.91;100414.34;4990596;28;19925;-94
2021/09/28 05:03:27;;;;;;;;;;;;;;;7.18;83.04;100414.53;4992486;28;20327;-82
2021/09/28 05:05:53;;;;;;;;;;;;;;;7.36;82.12;100411.56;4975567;28;19926;-91
2021/09/28 05:08:18;;;;;;;;;;;;;;;7.49;81.32;100422.72;4992909;28;19928;-90
2021/09/28 05:10:43;;;;;;;;;;;;;;;7.44;81.99;100409.63;4993093;28;19925;-85
2021/09/28 05:13:08;;;;;;;;;;;;;;;7.24;92.58;100414.41;4992854;28;20009;-85
2021/09/28 05:15:34;;;;;;;;;;;;;;;7.34;93.84;100415.09;4991653;28;19921;-87
2021/09/28 05:17:59;;;;;;;;;;;;;;;7.48;92.33;100420.97;4975568;28;20009;-93
2021/09/28 05:20:24;;;;;;;;;;;;;;;7.67;91.23;100415.34;4992503;28;19922;-80
2021/09/28 05:22:49;;;;;;;;;;;;;;;7.67;89.78;100412.69;4992595;28;20425;-93
2021/09/28 05:25:15;;;;;;;;;;;;;;;7.74;89.33;100409.91;4975123;28;19925;-86
2021/09/28 05:27:40;;;;;;;;;;;;;;;7.85;89.09;100419.34;4975248;28;20335;-91
2021/09/28 05:30:06;;;;;;;;;;;;;;;7.90;89.71;100406.94;4974048;28;19925;-90
2021/09/28 05:32:31;;;;;;;;;;;;;;;7.69;90.47;100405.63;4977593;28;19918;-87
2021/09/28 05:34:57;;;;;;;;;;;;;;;7.91;89.45;100416.56;4978778;28;20012;-88
2021/09/28 05:37:22;;;;;;;;;;;;;;;7.91;90.73;100419.22;4996097;28;20411;-90
2021/09/28 05:39:47;;;;;;;;;;;;;;;7.77;89.96;100423.03;4996037;28;19925;-89
2021/09/28 05:42:13;;;;;;;;;;;;;;;7.99;89.75;100420.81;4978352;28;20396;-85
2021/09/28 05:44:38;;;;;;;;;;;;;;;8.01;89.20;100420.78;4995901;28;20011;-89
2021/09/28 05:47:04;;;;;;;;;;;;;;;7.95;90.82;100419.13;4976796;28;19922;-89
2021/09/28 05:49:29;;;;;;;;;;;;;;;7.88;100.00;100421.91;4978174;28;20322;-87
2021/09/28 05:51:55;;;;;;;;;;;;;;;8.04;100.00;100415.44;4995769;28;20375;-86
2021/09/28 05:54:21;;;;;;;;;;;;;;;8.04;100.00;100423.34;4977522;28;20288;-86
2021/09/28 05:56:50;;;;;;;;;;;;;;;8.21;98.04;100425.59;4977980;28;19917;-87
2021/09/28 05:59:16;;;;;;;;;;;;;;;8.05;96.45;100421.56;4993233;28;19917;-87
2021/09/28 06:01:41;;;;;;;;;;;;;;;8.13;95.69;100424.88;4976628;28;20365;-87
2021/09/28 06:04:07;;;;;;;;;;;;;;;8.24;95.17;100432.56;4977873;28;20874;-87
2021/09/28 06:06:32;;;;;;;;;;;;;;;8.19;95.00;100430.03;4977725;28;19918;-87
2021/09/28 06:08:57;;;;;;;;;;;;;;;8.07;95.45;100425.88;4974868;28;19937;-86
2021/09/28 06:11:23;;;;;;;;;;;;;;;8.02;94.33;100430.41;4977434;28;19964;-88
2021/09/28 06:13:48;;;;;;;;;;;;;;;8.19;94.55;100430.91;4977740;28;19922;-87
2021/09/28 06:16:14;;;;;;;;;;;;;;;8.00;94.43;100430.44;4992286;28;19920;-87
2021/09/28 06:18:39;;;;;;;;;;;;;;;8.05;94.61;100422.41;4977735;28;20308;-87
2021/09/28 06:21:04;;;;;;;;;;;;;;;7.97;94.71;100434.91;4977540;28;19925;-86
2021/09/28 06:23:29;;;;;;;;;;;;;;;8.04;94.81;100430.38;4995294;28;19918;-87
2021/09/28 06:25:55;;;;;;;;;;;;;;;8.01;94.29;100433.97;4977172;28;20280;-87
2021/09/28 06:28:20;;;;;;;;;;;;;;;8.03;95.01;100436.56;4977470;28;19921;-86
2021/09/28 06:30:46;;;;;;;;;;;;;;;7.97;95.14;100435.78;4993448;28;20300;-87
2021/09/28 06:33:11;;;;;;;;;;;;;;;8.05;94.64;100426.84;4977389;28;19925;-87
2021/09/28 06:35:37;;;;;;;;;;;;;;;8.00;94.48;100427.78;4977399;28;19968;-86
2021/09/28 06:38:04;;;;;;;;;;;;;;;8.03;94.77;100433.94;4977365;28;20419;-87
2021/09/28 06:40:29;;;;;;;;;;;;;;;8.00;94.83;100429.56;4977159;28;19922;-86
2021/09/28 06:42:54;;;;;;;;;;;;;;;8.02;96.66;100427.75;4977120;28;19937;-87
2021/09/28 06:45:22;;;;;;;;;;;;;;;8.04;94.80;100420.69;4975818;28;19922;-87
2021/09/28 06:47:47;;;;;;;;;;;;;;;8.06;94.70;100418.88;4994474;28;19921;-86
2021/09/28 06:50:13;;;;;;;;;;;;;;;8.14;94.54;100421.34;4977042;28;19922;-87
2021/09/28 06:52:38;;;;;;;;;;;;;;;8.10;94.89;100415.25;4977096;28;20300;-86
2021/09/28 06:55:04;;;;;;;;;;;;;;;8.08;94.97;100421.50;4994347;28;19929;-87
2021/09/28 06:57:29;;;;;;;;;;;;;;;8.05;94.50;100408.38;4994320;28;19922;-87
2021/09/28 06:59:54;;;;;;;;;;;;;;;8.14;94.80;100416.94;4975709;28;19922;-88
2021/09/28 07:02:19;;;;;;;;;;;;;;;8.14;94.56;100416.09;4976756;28;19924;-88
2021/09/28 07:04:45;;;;;;;;;;;;;;;8.28;94.05;100418.38;4977262;28;19976;-87
2021/09/28 07:07:10;;;;;;;;;;;;;;;8.19;93.69;100404.50;4976770;28;19969;-88
2021/09/28 07:09:35;;;;;;;;;;;;;;;8.21;93.82;100406.25;4976699;28;19972;-89
2021/09/28 07:12:01;;;;;;;;;;;;;;;8.27;93.42;100412.25;4976783;28;20396;-88
2021/09/28 07:14:26;;;;;;;;;;;;;;;8.41;93.38;100405.75;4993964;28;19922;-88
2021/09/28 07:16:51;;;;;;;;;;;;;;;8.63;92.30;100409.66;4975384;28;19961;-88
2021/09/28 07:19:16;;;;;;;;;;;;;;;8.58;91.95;100405.38;4993900;28;19918;-88
2021/09/28 07:21:42;;;;;;;;;;;;;;;8.66;90.96;100398.13;4994133;28;19925;-88
2021/09/28 08:01:30;;;;;;;;;;;;;;;8.58;90.88;100400.09;5621547;22;19934;-86
2021/09/28 08:03:55;;;;;;;;;;;;;;;17.65;71.46;100374.09;5000111;28;19921;-85
2021/09/28 08:06:20;;;;;;;;;;;;;;;13.72;72.28;100389.09;5003643;28;19957;-79
2021/09/28 08:08:45;;;;;;;;;;;;;;;11.08;82.48;100396.19;5002840;28;19918;-87
2021/09/28 08:11:11;;;;;;;;;;;;;;;10.35;85.35;100387.16;5003435;28;19924;-79
2021/09/28 08:13:36;;;;;;;;;;;;;;;10.02;86.96;100397.00;5002702;28;19921;-78
2021/09/28 08:16:01;;;;;;;;;;;;;;;9.82;86.91;100394.03;5001730;28;20427;-79
2021/09/28 08:18:26;;;;;;;;;;;;;;;9.86;87.22;100394.84;5002374;28;20016;-93
2021/09/28 08:20:52;;;;;;;;;;;;;;;9.87;86.96;100393.91;5003131;28;20265;-91
2021/09/28 08:23:17;;;;;;;;;;;;;;;18.09;67.13;100376.63;5002575;28;19925;-76
2021/09/28 08:31:04;;;;;;;;;;;;;;;10.25;85.83;100396.28;5001827;28;19971;-83
2021/09/28 08:33:30;;;;;;;;;;;;;;;9.88;87.88;100403.59;5001469;28;19917;-82
2021/09/28 08:35:56;;;;;;;;;;;;;;;9.63;88.70;100392.84;5000528;28;20339;-83
2021/09/28 08:38:22;;;;;;;;;;;;;;;9.46;89.07;100390.69;5001475;28;19972;-82
2021/09/28 08:40:47;;;;;;;;;;;;;;;9.51;88.82;100396.75;5000710;28;19972;-85
2021/09/28 08:43:12;;;;;;;;;;;;;;;9.32;89.52;100403.44;5002428;28;19922;-82
2021/09/28 08:45:37;;;;;;;;;;;;;;;9.29;89.52;100403.56;5000326;28;19975;-83
2021/09/28 08:48:03;;;;;;;;;;;;;;;9.43;89.13;100406.69;5002528;28;19917;-86
2021/09/28 08:50:30;;;;;;;;;;;;;;;9.29;90.83;100393.84;5015903;28;20194;-84
2021/09/28 08:52:55;;;;;;;;;;;;;;;9.17;90.34;100395.03;4998057;28;19921;-83
2021/09/28 08:55:21;;;;;;;;;;;;;;;9.32;89.37;100392.84;5001277;28;19921;-87
2021/09/28 08:57:47;;;;;;;;;;;;;;;9.43;89.21;100389.03;5001759;28;19940;-82
2021/09/28 09:00:15;;;;;;;;;;;;;;;9.18;90.90;100391.47;5002539;28;20304;-83
2021/09/28 09:02:41;;;;;;;;;;;;;;;9.23;90.50;100384.28;5015490;28;20440;-84
2021/09/28 09:05:11;;;;;;;;;;;;;;;9.21;89.38;100388.75;5018116;28;19949;-88
2021/09/28 09:07:36;;;;;;;;;;;;;;;9.34;89.15;100383.13;5006213;28;19918;-82
2021/09/28 09:10:01;;;;;;;;;;;;;;;9.16;89.75;100382.72;5004676;28;19922;-86
2021/09/28 09:12:30;;;;;;;;;;;;;;;9.11;90.32;100389.94;5004729;28;20257;-83
2021/09/28 09:15:13;;;;;;;;;;;;;;;9.32;89.84;100387.56;5005915;28;19921;-82
2021/09/28 09:17:39;;;;;;;;;;;;;;;9.31;90.37;100386.72;5020421;28;20340;-83
2021/09/28 09:20:20;;;;;;;;;;;;;;;9.20;89.42;100384.34;5004440;28;19917;-85
2021/09/28 09:22:45;;;;;;;;;;;;;;;9.30;89.53;100376.19;5005481;28;20404;-87
2021/09/28 09:25:17;;;;;;;;;;;;;;;9.28;89.13;100386.78;5004717;28;19913;-88
2021/09/28 09:27:42;;;;;;;;;;;;;;;9.35;89.14;100379.56;5005043;28;20012;-83
2021/09/28 09:30:15;;;;;;;;;;;;;;;9.21;89.42;100378.19;5005889;28;20065;-87
2021/09/28 09:32:44;;;;;;;;;;;;;;;9.37;89.20;100380.41;5003819;28;19925;-85
2021/09/28 09:35:09;;;;;;;;;;;;;;;9.30;89.76;100384.09;5005591;28;19964;-87
2021/09/28 09:37:38;;;;;;;;;;;;;;;9.35;89.37;100376.91;5005214;28;19918;-82
2021/09/28 09:40:03;;;;;;;;;;;;;;;9.33;89.36;100366.38;5019827;28;19991;-88
2021/09/28 09:42:28;;;;;;;;;;;;;;;9.63;89.29;100372.53;5005640;28;20389;-85
2021/09/28 09:44:54;;;;;;;;;;;;;;;9.66;88.72;100365.47;5005163;28;20000;-84
2021/09/28 09:47:30;;;;;;;;;;;;;;;9.44;88.88;100368.72;5002898;28;19917;-83
2021/09/28 09:50:12;;;;;;;;;;;;;;;9.35;89.26;100361.03;5019950;28;19918;-83
2021/09/28 09:52:57;;;;;;;;;;;;;;;9.30;89.74;100369.09;5004203;28;19917;-86
2021/09/28 09:55:24;;;;;;;;;;;;;;;9.24;90.17;100364.88;5004451;28;20008;-83
2021/09/28 09:57:49;;;;;;;;;;;;;;;9.36;89.64;100366.28;5003855;28;20273;-84
2021/09/28 10:00:14;;;;;;;;;;;;;;;9.58;89.12;100369.19;5003595;28;19917;-86
2021/09/28 10:02:40;;;;;;;;;;;;;;;9.64;89.76;100368.16;5002688;28;19976;-86
2021/09/28 10:05:05;;;;;;;;;;;;;;;9.41;89.23;100355.56;5003661;28;19925;-87
2021/09/28 10:07:30;;;;;;;;;;;;;;;9.49;89.21;100350.06;5004958;28;19918;-83
2021/09/28 10:09:55;;;;;;;;;;;;;;;9.52;88.91;100356.13;5001024;28;19940;-83
2021/09/28 10:12:21;;;;;;;;;;;;;;;9.37;89.46;100352.16;5003931;28;19921;-83
2021/09/28 10:14:46;;;;;;;;;;;;;;;9.30;90.75;100345.31;5003381;28;19928;-83
2021/09/28 10:17:17;;;;;;;;;;;;;;;9.30;89.63;100352.38;5001861;28;19971;-88
2021/09/28 10:19:50;;;;;;;;;;;;;;;9.44;89.03;100339.63;5004896;28;19918;-83
2021/09/28 10:22:34;;;;;;;;;;;;;;;9.57;88.56;100343.66;5018975;28;19918;-87
2021/09/28 10:25:18;;;;;;;;;;;;;;;9.48;88.57;100346.56;5004600;28;19928;-82
2021/09/28 10:27:44;;;;;;;;;;;;;;;9.51;89.36;100338.53;5004927;28;19921;-84
2021/09/28 10:30:09;;;;;;;;;;;;;;;9.60;89.05;100327.66;5003750;28;20428;-86
2021/09/28 10:32:36;;;;;;;;;;;;;;;9.64;88.43;100328.47;5003477;28;19918;-89
2021/09/28 10:35:04;;;;;;;;;;;;;;;9.55;88.96;100320.78;5003843;28;19917;-83
2021/09/28 10:37:42;;;;;;;;;;;;;;;9.67;89.30;100322.19;5003523;28;19922;-80
2021/09/28 10:40:08;;;;;;;;;;;;;;;9.63;89.73;100322.28;5003041;28;19930;-83
2021/09/28 10:42:50;;;;;;;;;;;;;;;9.67;89.03;100317.78;5018406;28;19964;-88
2021/09/28 10:45:17;;;;;;;;;;;;;;;9.80;89.24;100312.97;5002093;28;19921;-82
2021/09/28 10:47:45;;;;;;;;;;;;;;;9.70;88.49;100314.16;5002101;28;19932;-91
2021/09/28 10:50:22;;;;;;;;;;;;;;;9.70;88.00;100308.84;5001894;28;20351;-88
2021/09/28 10:52:48;;;;;;;;;;;;;;;9.81;88.37;100306.75;5002526;28;19922;-86
2021/09/28 10:55:13;;;;;;;;;;;;;;;9.60;88.15;100301.19;5003126;28;19972;-85
2021/09/28 10:57:53;;;;;;;;;;;;;;;9.76;86.81;100306.03;5004570;28;19929;-85
2021/09/28 11:00:19;;;;;;;;;;;;;;;9.74;87.05;100290.19;5017295;28;19944;-84
2021/09/28 11:02:51;;;;;;;;;;;;;;;9.81;86.77;100290.88;4999236;28;19925;-83
2021/09/28 11:05:31;;;;;;;;;;;;;;;9.71;86.30;100286.78;5003457;28;20435;-89
2021/09/28 11:07:57;;;;;;;;;;;;;;;9.74;86.96;100279.63;5004180;28;19918;-84
2021/09/28 11:10:22;;;;;;;;;;;;;;;9.74;87.34;100284.06;5004518;28;19925;-82
2021/09/28 11:12:48;;;;;;;;;;;;;;;9.67;86.36;100275.44;5002545;28;19988;-83
2021/09/28 11:15:20;;;;;;;;;;;;;;;9.49;88.93;100278.66;5003657;28;19922;-89
2021/09/28 11:17:46;;;;;;;;;;;;;;;9.34;89.27;100264.97;5003320;28;19918;-88
2021/09/28 11:20:25;;;;;;;;;;;;;;;9.69;87.27;100264.81;5002347;28;20364;-89
2021/09/28 11:23:01;;;;;;;;;;;;;;;9.77;87.00;100258.34;5002204;28;19924;-89
2021/09/28 11:25:27;;;;;;;;;;;;;;;9.70;87.46;100261.22;5003537;28;19968;-85
2021/09/28 11:28:04;;;;;;;;;;;;;;;9.73;88.36;100261.13;5003310;28;19922;-88
2021/09/28 11:30:36;;;;;;;;;;;;;;;9.72;87.41;100262.06;5015514;28;19917;-82
2021/09/28 11:33:06;;;;;;;;;;;;;;;9.48;88.31;100253.97;5001248;28;19932;-81
2021/09/28 11:35:32;;;;;;;;;;;;;;;9.51;91.93;100251.25;5003317;28;19921;-84
2021/09/28 11:38:01;;;;;;;;;;;;;;;9.52;91.46;100252.09;5003605;28;19972;-90
2021/09/28 11:40:30;;;;;;;;;;;;;;;9.39;89.82;100247.19;5003136;28;19921;-88
2021/09/28 11:42:56;;;;;;;;;;;;;;;9.58;87.91;100246.63;5018630;28;20061;-86
2021/09/28 11:45:28;;;;;;;;;;;;;;;9.55;86.97;100241.44;4997017;28;19922;-81
2021/09/28 11:47:54;;;;;;;;;;;;;;;9.48;87.08;100240.75;5002975;28;19979;-86
2021/09/28 11:50:22;;;;;;;;;;;;;;;9.66;86.97;100243.75;5018304;28;20376;-90
2021/09/28 11:52:48;;;;;;;;;;;;;;;9.60;87.02;100228.91;5003177;28;20355;-89
2021/09/28 11:55:19;;;;;;;;;;;;;;;9.63;86.49;100216.44;5000525;28;20028;-86
2021/09/28 11:57:45;;;;;;;;;;;;;;;9.58;86.18;100220.16;5001883;28;19968;-87
2021/09/28 12:00:10;;;;;;;;;;;;;;;9.49;91.62;100216.00;5002890;28;19959;-89
2021/09/28 12:02:36;;;;;;;;;;;;;;;9.47;91.83;100211.72;5000631;28;19928;-82
2021/09/28 12:10:16;;;;;;;;;;;;;;;9.53;87.65;100195.66;5002480;28;20444;-90
2021/09/28 12:12:42;;;;;;;;;;;;;;;9.63;86.79;100194.41;5001384;28;19922;-81
2021/09/28 12:15:09;;;;;;;;;;;;;;;9.49;88.90;100181.63;5001322;28;19921;-84
2021/09/28 12:17:38;;;;;;;;;;;;;;;9.75;86.21;100185.22;5007429;28;19922;-87
2021/09/28 12:20:14;;;;;;;;;;;;;;;9.72;85.61;100186.19;5017803;28;19917;-81
2021/09/28 12:22:44;;;;;;;;;;;;;;;9.68;87.55;100179.25;5002624;28;19964;-82
2021/09/28 12:25:13;;;;;;;;;;;;;;;9.58;89.60;100178.69;5001314;28;19918;-81
2021/09/28 12:27:50;;;;;;;;;;;;;;;9.75;86.78;100182.59;4997993;28;19932;-89
2021/09/28 12:30:15;;;;;;;;;;;;;;;9.68;86.52;100176.59;4998305;28;19957;-83
2021/09/28 12:32:47;;;;;;;;;;;;;;;9.57;87.77;100166.41;4998634;28;20352;-87
2021/09/28 12:35:12;;;;;;;;;;;;;;;9.85;86.71;100162.81;5001311;28;19918;-86
2021/09/28 12:37:48;;;;;;;;;;;;;;;9.63;91.29;100171.47;5001793;28;20434;-82
2021/09/28 12:40:15;;;;;;;;;;;;;;;9.60;91.09;100176.84;5001281;28;19918;-82
2021/09/28 12:42:40;;;;;;;;;;;;;;;9.63;88.71;100165.31;5001217;28;19968;-85
2021/09/28 12:45:06;;;;;;;;;;;;;;;9.58;90.56;100160.16;5001986;28;19969;-88
2021/09/28 12:47:39;;;;;;;;;;;;;;;9.71;87.97;100157.13;5007979;28;19918;-84
2021/09/28 12:50:19;;;;;;;;;;;;;;;9.66;86.91;100153.78;5000226;28;19936;-81
2021/09/28 12:52:45;;;;;;;;;;;;;;;9.61;88.28;100138.06;5000563;28;19921;-82
2021/09/28 12:55:10;;;;;;;;;;;;;;;9.75;91.06;100148.19;5000847;28;19928;-82
2021/09/28 12:57:35;;;;;;;;;;;;;;;9.60;90.29;100142.47;5001199;28;19913;-82
2021/09/28 13:00:01;;;;;;;;;;;;;;;9.62;89.39;100143.28;5001186;28;19922;-88
2021/09/28 13:02:26;;;;;;;;;;;;;;;9.57;90.19;100132.00;5000636;28;20369;-81
2021/09/28 13:04:51;;;;;;;;;;;;;;;9.82;85.71;100133.81;5000847;28;19921;-85
2021/09/28 13:07:17;;;;;;;;;;;;;;;9.89;84.43;100130.06;5001236;28;19917;-84
2021/09/28 13:09:44;;;;;;;;;;;;;;;9.74;87.15;100133.22;5000997;28;19964;-84
2021/09/28 13:12:09;;;;;;;;;;;;;;;9.90;86.53;100117.66;5000647;28;19960;-85
2021/09/28 13:14:35;;;;;;;;;;;;;;;9.92;83.87;100119.31;5009041;28;19975;-85
2021/09/28 13:17:00;;;;;;;;;;;;;;;9.93;83.86;100118.41;5001131;28;19925;-82
2021/09/28 13:19:25;;;;;;;;;;;;;;;10.03;84.93;100121.59;5008939;28;19924;-88
2021/09/28 13:21:50;;;;;;;;;;;;;;;9.91;85.81;100116.75;5000955;28;19921;-85
2021/09/28 13:24:16;;;;;;;;;;;;;;;9.73;88.27;100110.31;5000763;28;20365;-81
2021/09/28 13:26:41;;;;;;;;;;;;;;;9.74;86.66;100112.91;5001813;28;19918;-81
2021/09/28 13:29:06;;;;;;;;;;;;;;;9.76;87.54;100111.06;5000855;28;20089;-87
2021/09/28 13:31:32;;;;;;;;;;;;;;;9.74;88.26;100110.25;4999497;28;19924;-85
2021/09/28 13:33:57;;;;;;;;;;;;;;;9.84;86.89;100100.22;5000634;28;20389;-81
2021/09/28 13:36:23;;;;;;;;;;;;;;;9.71;89.84;100104.22;5001668;28;19940;-81
2021/09/28 13:38:48;;;;;;;;;;;;;;;9.68;90.70;100088.44;5000889;28;20050;-81
2021/09/28 13:41:14;;;;;;;;;;;;;;;9.69;91.78;100093.69;5001975;28;19928;-81
2021/09/28 13:43:39;;;;;;;;;;;;;;;9.65;90.03;100084.09;5001449;28;19922;-82
2021/09/28 13:46:04;;;;;;;;;;;;;;;9.62;90.29;100090.38;5000023;28;19922;-80
2021/09/28 13:48:30;;;;;;;;;;;;;;;9.75;93.96;100089.97;5000954;28;20324;-83
2021/09/28 13:50:55;;;;;;;;;;;;;;;9.80;92.45;100096.81;5001627;28;19953;-84
2021/09/28 13:53:20;;;;;;;;;;;;;;;9.78;90.31;100089.84;5009788;28;19918;-81
2021/09/28 13:55:45;;;;;;;;;;;;;;;9.81;87.56;100085.31;5003991;28;19944;-81
2021/09/28 13:58:11;;;;;;;;;;;;;;;9.88;86.41;100080.66;5004245;28;19925;-86
2021/09/28 14:00:36;;;;;;;;;;;;;;;9.77;90.08;100082.84;5002855;28;19972;-81
2021/09/28 14:03:01;;;;;;;;;;;;;;;9.90;84.62;100073.53;5004738;28;20012;-86
2021/09/28 14:05:26;;;;;;;;;;;;;;;9.84;88.38;100068.44;5005216;28;19961;-81
2021/09/28 14:07:52;;;;;;;;;;;;;;;9.88;89.06;100069.22;5011877;28;19925;-87
2021/09/28 14:10:17;;;;;;;;;;;;;;;9.73;86.35;100065.31;5004378;28;19918;-82
2021/09/28 14:12:43;;;;;;;;;;;;;;;9.89;85.43;100069.19;5000370;28;20295;-81
2021/09/28 14:15:08;;;;;;;;;;;;;;;9.87;84.47;100063.06;5003727;28;19971;-88
2021/09/28 14:17:34;;;;;;;;;;;;;;;9.76;87.07;100068.72;4999904;28;19921;-84
2021/09/28 14:19:59;;;;;;;;;;;;;;;9.81;88.80;100057.97;5004872;28;19924;-81
2021/09/28 14:22:24;;;;;;;;;;;;;;;9.80;86.39;100054.47;5003361;28;20032;-85
2021/09/28 14:24:51;;;;;;;;;;;;;;;9.80;87.70;100051.81;5005359;28;19932;-82
2021/09/28 14:27:17;;;;;;;;;;;;;;;9.71;86.55;100052.13;5002506;28;19922;-83
2021/09/28 14:29:42;;;;;;;;;;;;;;;9.79;86.20;100051.88;5004620;28;19918;-83
2021/09/28 14:32:07;;;;;;;;;;;;;;;9.95;87.00;100052.19;5002083;28;19928;-83
2021/09/28 14:34:32;;;;;;;;;;;;;;;9.72;84.61;100060.97;5002724;28;20020;-81
2021/09/28 14:36:58;;;;;;;;;;;;;;;9.84;87.53;100059.66;5004796;28;20376;-84
2021/09/28 14:39:24;;;;;;;;;;;;;;;9.86;83.99;100050.75;5004818;28;19920;-86
2021/09/28 14:41:50;;;;;;;;;;;;;;;9.83;84.47;100034.97;5004407;28;19924;-86
2021/09/28 14:44:15;;;;;;;;;;;;;;;9.85;86.14;100027.84;5004341;28;20019;-82
2021/09/28 14:46:40;;;;;;;;;;;;;;;9.81;86.11;100034.16;5003118;28;20368;-85
2021/09/28 14:49:05;;;;;;;;;;;;;;;9.88;85.71;100027.75;5004209;28;19969;-83
2021/09/28 14:51:31;;;;;;;;;;;;;;;9.98;86.31;100020.31;5003025;28;19913;-81
2021/09/28 14:53:56;;;;;;;;;;;;;;;10.04;82.93;100025.41;5004754;28;19921;-87
2021/09/28 14:56:21;;;;;;;;;;;;;;;9.87;84.93;100019.84;5004104;28;19918;-80
2021/09/28 14:58:47;;;;;;;;;;;;;;;9.99;86.26;100017.63;5004083;28;19956;-82
2021/09/28 15:01:12;;;;;;;;;;;;;;;9.94;83.47;100011.63;5002891;28;19925;-86
2021/09/28 15:03:38;;;;;;;;;;;;;;;10.08;82.74;100008.44;5002332;28;20297;-84
2021/09/28 15:06:06;;;;;;;;;;;;;;;10.02;82.02;100008.72;5002745;28;20118;-87
2021/09/28 15:08:32;;;;;;;;;;;;;;;9.94;82.53;100008.09;5003973;28;20041;-87
2021/09/28 15:10:57;;;;;;;;;;;;;;;9.92;83.75;99997.56;5010238;28;20602;-83
2021/09/28 15:13:22;;;;;;;;;;;;;;;10.01;84.27;99999.03;5010621;28;19918;-80
2021/09/28 15:15:47;;;;;;;;;;;;;;;9.92;84.50;99994.06;5001055;28;19921;-88
2021/09/28 15:18:13;;;;;;;;;;;;;;;9.99;87.25;99985.00;5003884;28;19998;-80
2021/09/28 15:20:38;;;;;;;;;;;;;;;9.96;88.01;99991.25;5002942;28;19929;-80
2021/09/28 15:23:03;;;;;;;;;;;;;;;9.96;84.69;99993.91;5002266;28;19945;-81
2021/09/28 15:25:29;;;;;;;;;;;;;;;10.08;81.78;99991.72;5002001;28;19996;-80
2021/09/28 15:27:54;;;;;;;;;;;;;;;10.10;81.06;99997.81;5002079;28;19918;-81
2021/09/28 15:30:23;;;;;;;;;;;;;;;9.99;83.37;99991.16;5002360;28;19922;-80
2021/09/28 15:32:48;;;;;;;;;;;;;;;10.08;81.23;100000.50;5010178;28;20400;-89
2021/09/28 15:35:15;;;;;;;;;;;;;;;9.99;81.90;99991.16;4999220;28;19921;-86
2021/09/28 15:37:40;;;;;;;;;;;;;;;10.03;82.87;99988.38;5002157;28;19918;-81
2021/09/28 15:40:06;;;;;;;;;;;;;;;10.01;82.49;99975.22;5010405;28;19918;-82
2021/09/28 15:42:31;;;;;;;;;;;;;;;9.93;83.42;99982.56;5003566;28;19969;-81
2021/09/28 15:44:57;;;;;;;;;;;;;;;10.01;81.69;99991.09;5001901;28;19918;-82
2021/09/28 15:47:22;;;;;;;;;;;;;;;9.95;81.59;100002.75;5008681;28;19925;-80
2021/09/28 15:49:48;;;;;;;;;;;;;;;9.91;82.61;100000.31;5010089;28;19969;-81
2021/09/28 15:52:13;;;;;;;;;;;;;;;10.00;82.21;100003.47;5001878;28;20259;-81
2021/09/28 15:54:39;;;;;;;;;;;;;;;10.00;81.16;99995.53;5003846;28;19956;-80
2021/09/28 15:57:04;;;;;;;;;;;;;;;10.12;82.31;100003.94;4999367;28;19932;-81
2021/09/28 15:59:29;;;;;;;;;;;;;;;10.14;81.56;100004.72;5001581;28;19998;-87
2021/09/28 16:01:55;;;;;;;;;;;;;;;10.12;81.48;100003.94;5000136;28;19979;-80
2021/09/28 16:04:20;;;;;;;;;;;;;;;10.21;81.33;100008.00;5002472;28;19918;-87
2021/09/28 16:06:46;;;;;;;;;;;;;;;9.95;81.75;100000.09;5001588;28;19918;-81
2021/09/28 16:09:12;;;;;;;;;;;;;;;10.04;81.25;99996.28;5002969;28;19922;-85
2021/09/28 16:11:37;;;;;;;;;;;;;;;9.95;81.57;100002.75;5000543;28;19921;-88
2021/09/28 16:14:03;;;;;;;;;;;;;;;9.96;81.74;99999.19;4999171;28;20270;-84
2021/09/28 16:16:28;;;;;;;;;;;;;;;10.07;81.68;99989.97;5016123;28;19918;-81
2021/09/28 16:18:54;;;;;;;;;;;;;;;10.13;82.40;99989.75;5003124;28;19921;-87
2021/09/28 16:21:19;;;;;;;;;;;;;;;10.16;81.20;99992.28;5009526;28;19961;-81
2021/09/28 16:23:44;;;;;;;;;;;;;;;10.06;81.94;99988.28;5002864;28;19971;-80
2021/09/28 16:26:10;;;;;;;;;;;;;;;10.06;81.84;99982.97;5002419;28;19922;-80
2021/09/28 16:28:37;;;;;;;;;;;;;;;10.05;81.74;99975.94;5002542;28;19972;-80
2021/09/28 16:31:02;;;;;;;;;;;;;;;10.14;81.47;99980.91;5001740;28;19917;-81
2021/09/28 16:33:27;;;;;;;;;;;;;;;10.98;80.10;99979.38;5002601;28;20365;-83
2021/09/28 16:35:57;;;;;;;;;;;;;;;10.58;79.97;99975.69;5000917;28;19921;-82
2021/09/28 16:38:22;;;;;;;;;;;;;;;10.16;81.53;99977.28;5016556;28;19918;-85
2021/09/28 16:40:48;;;;;;;;;;;;;;;10.15;81.49;99969.41;5000988;28;19925;-86
2021/09/28 16:43:13;;;;;;;;;;;;;;;10.05;82.16;99971.53;5002941;28;19923;-82
2021/09/28 16:45:39;;;;;;;;;;;;;;;10.09;82.46;99977.56;5001095;28;20388;-86
2021/09/28 16:48:04;;;;;;;;;;;;;;;10.12;81.45;99974.81;5002209;28;19925;-82
2021/09/28 16:50:29;;;;;;;;;;;;;;;10.26;80.90;99967.19;5017437;28;19957;-81
2021/09/28 16:52:55;;;;;;;;;;;;;;;10.14;81.46;99972.97;5002128;28;19928;-81
2021/09/28 16:55:20;;;;;;;;;;;;;;;10.18;81.19;99977.22;5000933;28;19924;-83
2021/09/28 16:57:45;;;;;;;;;;;;;;;10.16;81.72;99976.41;5001243;28;20470;-81
2021/09/28 17:00:11;;;;;;;;;;;;;;;10.04;82.07;99967.16;5002276;28;19973;-83
2021/09/28 17:02:36;;;;;;;;;;;;;;;10.10;82.33;99971.34;5000620;28;19933;-82
2021/09/28 17:05:01;;;;;;;;;;;;;;;10.07;82.20;99963.50;5001169;28;19925;-81
2021/09/28 17:07:27;;;;;;;;;;;;;;;10.05;82.46;99960.06;5002535;28;20025;-87
2021/09/28 17:09:52;;;;;;;;;;;;;;;10.16;82.67;99963.16;5000220;28;19924;-85
2021/09/28 17:12:17;;;;;;;;;;;;;;;10.22;82.76;99957.63;5008971;28;20289;-81
2021/09/28 17:14:42;;;;;;;;;;;;;;;10.20;81.99;99964.78;5009261;28;19951;-86
2021/09/28 17:17:09;;;;;;;;;;;;;;;10.30;82.19;99954.69;5001085;28;19959;-87
2021/09/28 17:19:34;;;;;;;;;;;;;;;10.32;82.03;99955.47;5001712;28;19929;-87
2021/09/28 17:21:59;;;;;;;;;;;;;;;10.26;82.41;99956.59;5001956;28;19921;-81
2021/09/28 17:24:25;;;;;;;;;;;;;;;10.17;82.75;99951.66;5002349;28;19989;-85
2021/09/28 17:26:50;;;;;;;;;;;;;;;10.10;83.27;99947.50;5001589;28;19957;-84
2021/09/28 17:29:15;;;;;;;;;;;;;;;10.34;82.52;99951.91;5004876;28;19918;-81
2021/09/28 17:31:59;;;;;;;;;;;;;;;10.24;82.49;99953.13;5004379;28;19933;-85
2021/09/28 17:34:24;;;;;;;;;;;;;;;10.19;83.17;99944.50;5005984;28;19964;-86
2021/09/28 17:36:50;;;;;;;;;;;;;;;10.33;83.28;99946.66;5005957;28;19968;-86
2021/09/28 17:39:15;;;;;;;;;;;;;;;10.46;82.36;99954.97;5004203;28;19921;-81
2021/09/28 17:41:40;;;;;;;;;;;;;;;10.36;82.19;99950.03;5004205;28;19917;-82
2021/09/28 17:44:05;;;;;;;;;;;;;;;10.40;83.12;99945.47;5004586;28;20390;-86
2021/09/28 17:46:31;;;;;;;;;;;;;;;10.33;82.30;99949.31;5003120;28;19917;-82
2021/09/28 17:48:56;;;;;;;;;;;;;;;10.36;82.66;99946.53;5003978;28;19929;-84
2021/09/28 17:51:21;;;;;;;;;;;;;;;10.35;83.42;99943.03;5004238;28;20373;-84
2021/09/28 17:53:56;;;;;;;;;;;;;;;10.33;82.40;99939.56;5004263;28;19922;-81
2021/09/28 17:56:39;;;;;;;;;;;;;;;10.39;82.66;99933.19;5004887;28;19924;-84
2021/09/28 17:59:04;;;;;;;;;;;;;;;10.39;82.59;99942.88;5012156;28;19972;-86
2021/09/28 18:01:30;;;;;;;;;;;;;;;10.41;83.17;99941.91;5004477;28;19922;-84
2021/09/28 18:03:55;;;;;;;;;;;;;;;10.32;84.02;99942.25;5003833;28;20009;-88
2021/09/28 18:06:20;;;;;;;;;;;;;;;10.41;83.70;99941.06;5004787;28;19961;-81
2021/09/28 18:08:45;;;;;;;;;;;;;;;10.33;83.64;99942.22;5005198;28;19987;-82
2021/09/28 18:11:13;;;;;;;;;;;;;;;10.12;83.71;99940.38;5004779;28;19914;-84
2021/09/28 18:13:38;;;;;;;;;;;;;;;10.33;84.61;99939.56;5005289;28;19925;-86
2021/09/28 18:16:04;;;;;;;;;;;;;;;10.25;83.88;99938.13;5004431;28;19922;-87